createdAt,value
2019-03-30T00:02:37.959Z,23.27
2019-03-30T00:07:44.987Z,17.80
2019-03-30T00:12:51.890Z,19.03
2019-03-30T00:17:58.846Z,14.93
2019-03-30T00:23:05.944Z,18.70
2019-03-30T00:28:12.757Z,17.87
2019-03-30T00:33:19.635Z,15.10
2019-03-30T00:38:26.566Z,14.80
2019-03-30T00:43:34.370Z,13.10
2019-03-30T00:48:41.283Z,16.60
2019-03-30T00:53:48.116Z,15.80
2019-03-30T00:58:55.108Z,17.53
2019-03-30T01:04:02.079Z,14.07
2019-03-30T01:09:09.978Z,14.58
2019-03-30T01:14:17.279Z,16.97
2019-03-30T01:19:24.336Z,15.23
2019-03-30T01:24:31.091Z,17.23
2019-03-30T01:29:38.147Z,15.10
2019-03-30T01:34:45.090Z,14.57
2019-03-30T01:39:52.124Z,15.70
2019-03-30T01:44:59.104Z,17.67
2019-03-30T01:50:17.288Z,15.33
2019-03-30T01:55:16.259Z,16.97
2019-03-30T02:00:23.141Z,17.62
2019-03-30T02:05:30.190Z,19.07
2019-03-30T02:10:45.419Z,16.45
2019-03-30T02:15:52.639Z,15.07
2019-03-30T02:20:59.581Z,15.23
2019-03-30T02:26:06.439Z,13.35
2019-03-30T02:31:13.331Z,12.82
2019-03-30T02:36:20.316Z,13.97
2019-03-30T02:41:27.262Z,12.87
2019-03-30T02:46:34.895Z,14.98
2019-03-30T02:51:41.717Z,16.63
2019-03-30T02:56:48.777Z,13.87
2019-03-30T03:01:56.040Z,14.83
2019-03-30T03:07:03.155Z,14.87
2019-03-30T03:12:10.065Z,18.00
2019-03-30T03:17:17.349Z,13.60
2019-03-30T03:22:24.330Z,13.10
2019-03-30T03:27:32.808Z,16.03
2019-03-30T03:32:39.865Z,15.37
2019-03-30T03:37:46.757Z,17.33
2019-03-30T03:42:54.195Z,16.57
2019-03-30T03:48:01.141Z,13.63
2019-03-30T03:53:08.159Z,15.60
2019-03-30T03:58:17.242Z,14.73
2019-03-30T04:03:26.640Z,17.20
2019-03-30T04:08:33.886Z,15.83
2019-03-30T04:13:42.997Z,14.23
2019-03-30T04:18:50.107Z,14.30
2019-03-30T04:23:56.917Z,18.30
2019-03-30T04:29:04.130Z,17.47
2019-03-30T04:34:11.028Z,13.93
2019-03-30T04:39:18.021Z,14.30
2019-03-30T04:44:24.912Z,15.37
2019-03-30T04:49:31.971Z,13.80
2019-03-30T04:54:38.802Z,13.70
2019-03-30T04:59:45.665Z,13.67
2019-03-30T05:04:52.466Z,16.03
2019-03-30T05:10:00.522Z,17.20
2019-03-30T05:15:09.189Z,13.87
2019-03-30T05:20:16.287Z,14.37
2019-03-30T05:25:23.082Z,16.15
2019-03-30T05:30:30.295Z,14.60
2019-03-30T05:35:37.123Z,15.23
2019-03-30T05:40:44.150Z,16.95
2019-03-30T05:45:50.944Z,21.00
2019-03-30T05:50:57.908Z,15.57
2019-03-30T05:56:05.047Z,15.37
2019-03-30T06:01:12.898Z,17.23
2019-03-30T06:06:19.674Z,18.57
2019-03-30T06:11:26.491Z,14.50
2019-03-30T06:16:33.699Z,14.47
2019-03-30T06:21:40.457Z,16.30
2019-03-30T06:26:47.319Z,16.20
2019-03-30T06:31:54.120Z,13.60
2019-03-30T06:37:00.962Z,19.67
2019-03-30T06:42:07.918Z,14.97
2019-03-30T06:47:14.859Z,16.90
2019-03-30T06:52:24.863Z,18.53
2019-03-30T06:57:31.723Z,16.60
2019-03-30T07:02:39.666Z,17.67
2019-03-30T07:07:49.091Z,17.73
2019-03-30T07:12:57.419Z,20.30
2019-03-30T07:18:05.609Z,16.77
2019-03-30T07:23:12.915Z,13.13
2019-03-30T07:28:20.040Z,13.60
2019-03-30T07:33:26.865Z,13.67
2019-03-30T07:38:33.747Z,15.90
2019-03-30T07:43:40.902Z,14.73
2019-03-30T07:48:47.755Z,15.57
2019-03-30T07:53:54.548Z,14.38
2019-03-30T07:59:01.279Z,12.60
2019-03-30T08:04:08.214Z,15.78
2019-03-30T08:09:15.045Z,14.90
2019-03-30T08:14:21.854Z,14.57
2019-03-30T08:19:28.733Z,11.13
2019-03-30T08:24:35.679Z,12.70
2019-03-30T08:29:42.599Z,12.20
2019-03-30T08:34:49.688Z,13.97
2019-03-30T08:39:56.525Z,15.00
2019-03-30T08:45:03.491Z,16.93
2019-03-30T08:50:11.098Z,17.10
2019-03-30T08:55:18.080Z,15.03
2019-03-30T09:00:44.006Z,15.50
2019-03-30T09:05:51.018Z,15.03
2019-03-30T09:10:57.837Z,14.90
2019-03-30T09:16:04.790Z,12.97
2019-03-30T09:21:11.715Z,14.37
2019-03-30T09:26:18.572Z,15.55
2019-03-30T09:31:25.482Z,11.90
2019-03-30T09:36:33.734Z,13.17
2019-03-30T09:41:40.690Z,13.47
2019-03-30T09:46:47.677Z,15.07
2019-03-30T09:51:54.659Z,13.43
2019-03-30T09:57:01.817Z,14.93
2019-03-30T10:02:08.875Z,14.03
2019-03-30T10:07:16.030Z,14.10
2019-03-30T10:12:22.929Z,13.87
2019-03-30T10:17:29.701Z,14.70
2019-03-30T10:22:36.529Z,14.37
2019-03-30T10:27:43.364Z,15.13
2019-03-30T10:32:50.369Z,15.48
2019-03-30T10:37:57.295Z,13.83
2019-03-30T10:43:04.524Z,13.78
2019-03-30T10:48:11.350Z,12.50
2019-03-30T10:53:18.298Z,12.90
2019-03-30T10:58:25.195Z,12.27
2019-03-30T11:03:32.341Z,15.17
2019-03-30T11:08:39.149Z,14.17
2019-03-30T11:13:46.141Z,10.30
2019-03-30T11:18:53.019Z,11.63
2019-03-30T11:24:00.021Z,12.33
2019-03-30T11:29:07.038Z,17.90
2019-03-30T11:34:14.011Z,11.00
2019-03-30T11:39:21.067Z,11.63
2019-03-30T11:44:27.949Z,11.43
2019-03-30T11:49:34.979Z,12.87
2019-03-30T11:54:42.047Z,12.77
2019-03-30T11:59:48.925Z,11.30
2019-03-30T12:04:56.049Z,11.73
2019-03-30T12:10:03.043Z,9.67
2019-03-30T12:15:10.529Z,12.13
2019-03-30T12:20:17.558Z,10.38
2019-03-30T12:25:34.961Z,11.12
2019-03-30T12:30:33.099Z,15.40
2019-03-30T12:35:39.897Z,9.77
2019-03-30T12:40:46.736Z,9.50
2019-03-30T12:45:53.835Z,9.70
2019-03-30T12:51:00.631Z,10.67
2019-03-30T12:56:08.930Z,10.77
2019-03-30T13:01:16.346Z,8.47
2019-03-30T13:06:23.370Z,10.90
2019-03-30T13:11:30.296Z,11.37
2019-03-30T13:16:37.159Z,12.23
2019-03-30T13:21:52.536Z,12.43
2019-03-30T13:26:53.053Z,11.57
2019-03-30T13:32:00.145Z,10.03
2019-03-30T13:37:17.328Z,12.78
2019-03-30T13:42:24.369Z,11.88
2019-03-30T13:47:31.318Z,10.60
2019-03-30T13:52:38.223Z,13.17
2019-03-30T13:57:45.474Z,11.03
2019-03-30T14:02:52.559Z,13.07
2019-03-30T14:07:59.771Z,10.90
2019-03-30T14:13:06.643Z,11.90
2019-03-30T14:18:13.910Z,12.37
2019-03-30T14:23:20.925Z,11.30
2019-03-30T14:28:28.370Z,10.50
2019-03-30T14:33:35.152Z,10.43
2019-03-30T14:38:41.956Z,10.10
2019-03-30T14:43:48.885Z,10.37
2019-03-30T14:48:55.782Z,11.63
2019-03-30T14:54:02.969Z,10.17
2019-03-30T14:59:10.682Z,9.47
2019-03-30T15:04:20.915Z,12.13
2019-03-30T15:09:28.066Z,9.50
2019-03-30T15:14:35.143Z,12.43
2019-03-30T15:19:42.216Z,10.93
2019-03-30T15:24:49.876Z,12.50
2019-03-30T15:29:56.843Z,11.30
2019-03-30T15:35:03.806Z,12.13
2019-03-30T15:40:11.596Z,10.50
2019-03-30T15:45:18.616Z,10.67
2019-03-30T15:50:25.757Z,12.60
2019-03-30T15:55:33.581Z,11.17
2019-03-30T16:00:40.465Z,10.90
2019-03-30T16:05:47.561Z,13.77
2019-03-30T16:10:54.734Z,9.70
2019-03-30T16:16:01.975Z,9.93
2019-03-30T16:21:08.864Z,9.13
2019-03-30T16:26:15.754Z,11.93
2019-03-30T16:31:23.722Z,11.10
2019-03-30T16:36:30.975Z,12.90
2019-03-30T16:41:37.944Z,13.33
2019-03-30T16:46:44.804Z,11.73
2019-03-30T16:51:51.764Z,11.37
2019-03-30T16:56:58.706Z,15.83
2019-03-30T17:02:06.504Z,14.20
2019-03-30T17:07:14.227Z,13.98
2019-03-30T17:12:21.094Z,14.75
2019-03-30T17:17:28.000Z,13.67
2019-03-30T17:22:34.845Z,15.47
2019-03-30T17:27:41.904Z,20.67
2019-03-30T17:32:49.026Z,15.33
2019-03-30T17:37:56.485Z,13.83
2019-03-30T17:43:03.852Z,15.47
2019-03-30T17:48:10.685Z,20.25
2019-03-30T17:53:17.918Z,21.13
2019-03-30T17:58:24.810Z,20.23
2019-03-30T18:03:31.705Z,19.73
2019-03-30T18:08:38.703Z,21.37
2019-03-30T18:13:45.996Z,26.03
2019-03-30T18:18:52.889Z,25.15
2019-03-30T18:23:59.801Z,22.13
2019-03-30T18:29:37.979Z,23.77
2019-03-30T18:34:46.808Z,29.75
2019-03-30T18:39:53.935Z,31.33
2019-03-30T18:45:01.693Z,30.47
2019-03-30T18:50:09.241Z,31.87
2019-03-30T18:55:19.349Z,32.33
2019-03-30T19:00:29.313Z,28.87
2019-03-30T19:05:36.264Z,28.33
2019-03-30T19:10:43.195Z,27.70
2019-03-30T19:15:50.862Z,29.67
2019-03-30T19:20:57.836Z,33.27
2019-03-30T19:26:04.714Z,33.00
2019-03-30T19:31:12.043Z,30.13
2019-03-30T19:36:18.886Z,29.27
2019-03-30T19:41:25.942Z,29.23
2019-03-30T19:46:32.959Z,31.05
2019-03-30T19:51:40.064Z,29.37
2019-03-30T19:56:47.041Z,31.30
2019-03-30T20:01:54.097Z,33.93
2019-03-30T20:07:01.237Z,31.67
2019-03-30T20:12:08.284Z,31.90
2019-03-30T20:17:16.491Z,33.73
2019-03-30T20:22:23.375Z,32.70
2019-03-30T20:27:30.204Z,32.67
2019-03-30T20:32:37.086Z,32.67
2019-03-30T20:37:44.020Z,33.90
2019-03-30T20:42:50.991Z,33.57
2019-03-30T20:47:58.083Z,32.58
2019-03-30T20:53:06.309Z,33.50
2019-03-30T20:58:13.432Z,30.00
2019-03-30T21:03:20.388Z,31.30
2019-03-30T21:08:27.178Z,29.43
2019-03-30T21:13:34.955Z,31.25
2019-03-30T21:18:42.119Z,32.30
2019-03-30T21:23:49.313Z,31.53
2019-03-30T21:28:56.470Z,33.00
2019-03-30T21:34:03.421Z,30.47
2019-03-30T21:39:10.689Z,32.03
2019-03-30T21:44:22.121Z,35.03
2019-03-30T21:49:26.356Z,34.95
2019-03-30T21:54:33.300Z,35.03
2019-03-30T21:59:40.098Z,34.53
2019-03-30T22:04:47.239Z,34.65
2019-03-30T22:09:54.336Z,32.83
2019-03-30T22:15:01.825Z,39.73
2019-03-30T22:20:08.741Z,37.77
2019-03-30T22:25:15.559Z,38.17
2019-03-30T22:30:25.172Z,39.05
2019-03-30T22:35:31.139Z,37.33
2019-03-30T22:40:41.416Z,38.60
2019-03-30T22:45:47.158Z,38.27
2019-03-30T22:50:53.988Z,39.73
2019-03-30T22:56:00.849Z,37.40
2019-03-30T23:01:12.265Z,40.80
2019-03-30T23:06:20.697Z,43.07
2019-03-30T23:11:28.808Z,46.17
2019-03-30T23:16:37.341Z,43.63
2019-03-30T23:21:44.205Z,44.33
2019-03-30T23:26:51.076Z,41.70
2019-03-30T23:31:58.443Z,42.15
2019-03-30T23:37:06.147Z,44.43
2019-03-30T23:42:13.023Z,42.30
2019-03-30T23:47:20.252Z,43.08
2019-03-30T23:52:27.055Z,43.60
2019-03-30T23:57:33.860Z,49.80
